sensor_id;sensor_type;location;lat;lon;timestamp;P1;durP1;ratioP1;P2;durP2;ratioP2
55800;SDS011;41730;51.960;20.158;2023-04-24T00:02:06;16.50;;;10.40;;
55800;SDS011;41730;51.960;20.158;2023-04-24T00:04:48;16.30;;;11.00;;
55800;SDS011;41730;51.960;20.158;2023-04-24T00:07:31;18.90;;;10.50;;
55800;SDS011;41730;51.960;20.158;2023-04-24T00:10:16;20.10;;;11.50;;
55800;SDS011;41730;51.960;20.158;2023-04-24T00:12:51;19.00;;;11.40;;
55800;SDS011;41730;51.960;20.158;2023-04-24T00:15:33;18.20;;;11.60;;
55800;SDS011;41730;51.960;20.158;2023-04-24T00:18:09;18.20;;;11.40;;
55800;SDS011;41730;51.960;20.158;2023-04-24T00:20:43;17.20;;;10.90;;
55800;SDS011;41730;51.960;20.158;2023-04-24T00:23:15;17.20;;;11.10;;
55800;SDS011;41730;51.960;20.158;2023-04-24T00:25:59;15.90;;;11.10;;
55800;SDS011;41730;51.960;20.158;2023-04-24T00:28:37;15.10;;;10.70;;
55800;SDS011;41730;51.960;20.158;2023-04-24T00:31:18;17.90;;;11.80;;
55800;SDS011;41730;51.960;20.158;2023-04-24T00:33:57;17.00;;;11.80;;
55800;SDS011;41730;51.960;20.158;2023-04-24T00:36:31;17.20;;;11.00;;
55800;SDS011;41730;51.960;20.158;2023-04-24T00:41:38;15.00;;;11.00;;
55800;SDS011;41730;51.960;20.158;2023-04-24T00:44:10;21.90;;;14.10;;
55800;SDS011;41730;51.960;20.158;2023-04-24T00:46:44;29.40;;;16.60;;
55800;SDS011;41730;51.960;20.158;2023-04-24T00:49:22;29.50;;;17.70;;
55800;SDS011;41730;51.960;20.158;2023-04-24T00:52:02;26.40;;;16.60;;
55800;SDS011;41730;51.960;20.158;2023-04-24T00:54:37;31.10;;;18.10;;
55800;SDS011;41730;51.960;20.158;2023-04-24T00:57:09;30.10;;;17.50;;
55800;SDS011;41730;51.960;20.158;2023-04-24T00:59:43;27.90;;;15.90;;
55800;SDS011;41730;51.960;20.158;2023-04-24T01:02:29;19.10;;;12.60;;
55800;SDS011;41730;51.960;20.158;2023-04-24T01:05:05;24.00;;;13.80;;
55800;SDS011;41730;51.960;20.158;2023-04-24T01:07:44;20.90;;;13.60;;
55800;SDS011;41730;51.960;20.158;2023-04-24T01:10:17;24.00;;;13.90;;
55800;SDS011;41730;51.960;20.158;2023-04-24T01:12:49;23.90;;;13.40;;
55800;SDS011;41730;51.960;20.158;2023-04-24T01:15:30;19.10;;;12.40;;
55800;SDS011;41730;51.960;20.158;2023-04-24T01:18:06;18.90;;;11.50;;
55800;SDS011;41730;51.960;20.158;2023-04-24T01:20:43;17.10;;;11.50;;
55800;SDS011;41730;51.960;20.158;2023-04-24T01:23:22;19.50;;;12.30;;
55800;SDS011;41730;51.960;20.158;2023-04-24T01:25:59;15.60;;;11.20;;
55800;SDS011;41730;51.960;20.158;2023-04-24T01:28:38;18.50;;;11.00;;
55800;SDS011;41730;51.960;20.158;2023-04-24T01:31:15;19.30;;;11.20;;
55800;SDS011;41730;51.960;20.158;2023-04-24T01:33:48;17.50;;;11.80;;
55800;SDS011;41730;51.960;20.158;2023-04-24T01:36:22;18.40;;;11.30;;
55800;SDS011;41730;51.960;20.158;2023-04-24T01:38:55;18.60;;;11.70;;
55800;SDS011;41730;51.960;20.158;2023-04-24T01:41:37;16.70;;;11.30;;
55800;SDS011;41730;51.960;20.158;2023-04-24T01:44:11;17.50;;;11.40;;
55800;SDS011;41730;51.960;20.158;2023-04-24T01:46:47;16.60;;;11.10;;
55800;SDS011;41730;51.960;20.158;2023-04-24T01:49:21;17.80;;;11.80;;
55800;SDS011;41730;51.960;20.158;2023-04-24T01:52:00;16.70;;;11.70;;
55800;SDS011;41730;51.960;20.158;2023-04-24T01:54:32;16.80;;;11.70;;
55800;SDS011;41730;51.960;20.158;2023-04-24T01:57:05;16.30;;;11.90;;
55800;SDS011;41730;51.960;20.158;2023-04-24T01:59:40;16.90;;;11.20;;
55800;SDS011;41730;51.960;20.158;2023-04-24T02:02:13;18.40;;;11.50;;
55800;SDS011;41730;51.960;20.158;2023-04-24T02:04:48;16.80;;;11.80;;
55800;SDS011;41730;51.960;20.158;2023-04-24T02:07:23;16.70;;;11.40;;
55800;SDS011;41730;51.960;20.158;2023-04-24T02:10:03;16.50;;;11.50;;
55800;SDS011;41730;51.960;20.158;2023-04-24T02:12:36;17.50;;;11.20;;
55800;SDS011;41730;51.960;20.158;2023-04-24T02:15:11;15.20;;;11.40;;
55800;SDS011;41730;51.960;20.158;2023-04-24T02:17:45;17.50;;;11.00;;
55800;SDS011;41730;51.960;20.158;2023-04-24T02:22:52;17.90;;;11.50;;
55800;SDS011;41730;51.960;20.158;2023-04-24T02:25:24;15.80;;;10.30;;
55800;SDS011;41730;51.960;20.158;2023-04-24T02:28:02;19.60;;;12.00;;
55800;SDS011;41730;51.960;20.158;2023-04-24T02:30:37;19.70;;;12.00;;
55800;SDS011;41730;51.960;20.158;2023-04-24T02:33:09;18.20;;;12.60;;
55800;SDS011;41730;51.960;20.158;2023-04-24T02:35:47;16.00;;;11.70;;
55800;SDS011;41730;51.960;20.158;2023-04-24T02:38:23;17.40;;;11.90;;
55800;SDS011;41730;51.960;20.158;2023-04-24T02:41:00;22.30;;;11.60;;
55800;SDS011;41730;51.960;20.158;2023-04-24T02:43:38;19.60;;;11.70;;
55800;SDS011;41730;51.960;20.158;2023-04-24T02:46:11;17.10;;;11.70;;
55800;SDS011;41730;51.960;20.158;2023-04-24T02:48:44;19.90;;;13.10;;
55800;SDS011;41730;51.960;20.158;2023-04-24T02:51:17;20.10;;;12.30;;
55800;SDS011;41730;51.960;20.158;2023-04-24T02:53:53;15.50;;;11.40;;
55800;SDS011;41730;51.960;20.158;2023-04-24T02:56:29;21.40;;;12.50;;
55800;SDS011;41730;51.960;20.158;2023-04-24T02:59:03;20.60;;;13.40;;
55800;SDS011;41730;51.960;20.158;2023-04-24T03:01:38;21.90;;;13.80;;
55800;SDS011;41730;51.960;20.158;2023-04-24T03:04:10;18.70;;;11.90;;
55800;SDS011;41730;51.960;20.158;2023-04-24T03:06:49;18.90;;;12.40;;
55800;SDS011;41730;51.960;20.158;2023-04-24T03:09:42;17.10;;;13.30;;
55800;SDS011;41730;51.960;20.158;2023-04-24T03:12:44;19.10;;;12.90;;
55800;SDS011;41730;51.960;20.158;2023-04-24T03:15:24;20.70;;;13.40;;
55800;SDS011;41730;51.960;20.158;2023-04-24T03:17:57;18.50;;;11.30;;
55800;SDS011;41730;51.960;20.158;2023-04-24T03:20:32;17.10;;;12.20;;
55800;SDS011;41730;51.960;20.158;2023-04-24T03:23:05;19.80;;;12.00;;
55800;SDS011;41730;51.960;20.158;2023-04-24T03:25:41;18.20;;;12.50;;
55800;SDS011;41730;51.960;20.158;2023-04-24T03:28:20;17.60;;;11.70;;
55800;SDS011;41730;51.960;20.158;2023-04-24T03:30:54;17.70;;;12.50;;
55800;SDS011;41730;51.960;20.158;2023-04-24T03:33:28;18.60;;;12.00;;
55800;SDS011;41730;51.960;20.158;2023-04-24T03:36:02;20.00;;;13.50;;
55800;SDS011;41730;51.960;20.158;2023-04-24T03:38:40;24.80;;;14.00;;
55800;SDS011;41730;51.960;20.158;2023-04-24T03:41:27;16.30;;;11.40;;
55800;SDS011;41730;51.960;20.158;2023-04-24T03:44:11;16.90;;;11.50;;
55800;SDS011;41730;51.960;20.158;2023-04-24T03:46:50;17.60;;;12.20;;
55800;SDS011;41730;51.960;20.158;2023-04-24T03:49:42;18.50;;;11.80;;
55800;SDS011;41730;51.960;20.158;2023-04-24T03:52:29;17.60;;;12.90;;
55800;SDS011;41730;51.960;20.158;2023-04-24T03:55:18;19.40;;;13.10;;
55800;SDS011;41730;51.960;20.158;2023-04-24T03:58:04;19.60;;;13.40;;
55800;SDS011;41730;51.960;20.158;2023-04-24T04:00:48;15.60;;;11.80;;
55800;SDS011;41730;51.960;20.158;2023-04-24T04:03:31;17.60;;;12.10;;
55800;SDS011;41730;51.960;20.158;2023-04-24T04:06:16;18.60;;;11.50;;
55800;SDS011;41730;51.960;20.158;2023-04-24T04:09:07;20.30;;;12.40;;
55800;SDS011;41730;51.960;20.158;2023-04-24T04:12:01;19.80;;;12.40;;
55800;SDS011;41730;51.960;20.158;2023-04-24T04:14:33;20.90;;;12.30;;
55800;SDS011;41730;51.960;20.158;2023-04-24T04:17:04;21.00;;;11.90;;
55800;SDS011;41730;51.960;20.158;2023-04-24T04:19:40;19.30;;;12.20;;
55800;SDS011;41730;51.960;20.158;2023-04-24T04:22:15;19.60;;;12.10;;
55800;SDS011;41730;51.960;20.158;2023-04-24T04:24:47;21.90;;;13.20;;
55800;SDS011;41730;51.960;20.158;2023-04-24T04:27:25;20.00;;;12.40;;
55800;SDS011;41730;51.960;20.158;2023-04-24T04:30:01;17.90;;;11.90;;
55800;SDS011;41730;51.960;20.158;2023-04-24T04:32:34;17.80;;;12.10;;
55800;SDS011;41730;51.960;20.158;2023-04-24T04:35:06;16.80;;;12.20;;
55800;SDS011;41730;51.960;20.158;2023-04-24T04:37:37;22.50;;;13.10;;
55800;SDS011;41730;51.960;20.158;2023-04-24T04:40:10;14.90;;;11.10;;
55800;SDS011;41730;51.960;20.158;2023-04-24T04:42:48;22.00;;;11.60;;
55800;SDS011;41730;51.960;20.158;2023-04-24T04:45:29;18.30;;;12.30;;
55800;SDS011;41730;51.960;20.158;2023-04-24T04:48:09;19.00;;;13.00;;
55800;SDS011;41730;51.960;20.158;2023-04-24T04:50:42;19.00;;;12.50;;
55800;SDS011;41730;51.960;20.158;2023-04-24T04:53:14;19.70;;;11.80;;
55800;SDS011;41730;51.960;20.158;2023-04-24T04:55:46;21.80;;;11.90;;
55800;SDS011;41730;51.960;20.158;2023-04-24T04:58:18;19.00;;;12.70;;
55800;SDS011;41730;51.960;20.158;2023-04-24T05:00:49;17.90;;;11.00;;
55800;SDS011;41730;51.960;20.158;2023-04-24T05:03:21;23.60;;;10.70;;
55800;SDS011;41730;51.960;20.158;2023-04-24T05:05:55;15.20;;;10.80;;
55800;SDS011;41730;51.960;20.158;2023-04-24T05:08:27;18.20;;;11.60;;
55800;SDS011;41730;51.960;20.158;2023-04-24T05:10:59;19.00;;;11.80;;
55800;SDS011;41730;51.960;20.158;2023-04-24T05:13:33;16.90;;;12.10;;
55800;SDS011;41730;51.960;20.158;2023-04-24T05:16:11;16.00;;;11.70;;
55800;SDS011;41730;51.960;20.158;2023-04-24T05:18:47;17.80;;;12.50;;
55800;SDS011;41730;51.960;20.158;2023-04-24T05:21:23;20.60;;;12.50;;
55800;SDS011;41730;51.960;20.158;2023-04-24T05:24:02;20.70;;;12.50;;
55800;SDS011;41730;51.960;20.158;2023-04-24T05:26:34;18.80;;;12.60;;
55800;SDS011;41730;51.960;20.158;2023-04-24T05:29:10;17.00;;;12.70;;
55800;SDS011;41730;51.960;20.158;2023-04-24T05:31:51;18.30;;;12.40;;
55800;SDS011;41730;51.960;20.158;2023-04-24T05:34:26;18.60;;;12.60;;
55800;SDS011;41730;51.960;20.158;2023-04-24T05:36:58;25.60;;;13.30;;
55800;SDS011;41730;51.960;20.158;2023-04-24T05:39:30;17.80;;;11.80;;
55800;SDS011;41730;51.960;20.158;2023-04-24T05:42:04;18.60;;;11.70;;
55800;SDS011;41730;51.960;20.158;2023-04-24T05:44:39;18.20;;;12.40;;
55800;SDS011;41730;51.960;20.158;2023-04-24T05:47:12;16.50;;;11.90;;
55800;SDS011;41730;51.960;20.158;2023-04-24T05:49:43;15.70;;;10.90;;
55800;SDS011;41730;51.960;20.158;2023-04-24T05:52:15;22.90;;;11.50;;
55800;SDS011;41730;51.960;20.158;2023-04-24T05:54:47;17.10;;;10.80;;
55800;SDS011;41730;51.960;20.158;2023-04-24T05:57:19;20.00;;;11.20;;
55800;SDS011;41730;51.960;20.158;2023-04-24T05:59:55;24.90;;;11.00;;
55800;SDS011;41730;51.960;20.158;2023-04-24T06:02:26;16.20;;;10.70;;
55800;SDS011;41730;51.960;20.158;2023-04-24T06:05:01;12.90;;;9.50;;
55800;SDS011;41730;51.960;20.158;2023-04-24T06:07:34;17.30;;;9.50;;
55800;SDS011;41730;51.960;20.158;2023-04-24T06:10:07;22.20;;;11.60;;
55800;SDS011;41730;51.960;20.158;2023-04-24T06:12:39;23.50;;;11.30;;
55800;SDS011;41730;51.960;20.158;2023-04-24T06:15:11;18.60;;;10.30;;
55800;SDS011;41730;51.960;20.158;2023-04-24T06:17:43;16.40;;;10.10;;
55800;SDS011;41730;51.960;20.158;2023-04-24T06:20:16;16.90;;;10.70;;
55800;SDS011;41730;51.960;20.158;2023-04-24T06:22:49;22.60;;;11.30;;
55800;SDS011;41730;51.960;20.158;2023-04-24T06:25:24;13.80;;;9.00;;
55800;SDS011;41730;51.960;20.158;2023-04-24T06:27:56;16.10;;;10.10;;
55800;SDS011;41730;51.960;20.158;2023-04-24T06:30:28;13.50;;;9.60;;
55800;SDS011;41730;51.960;20.158;2023-04-24T06:33:03;18.20;;;9.90;;
55800;SDS011;41730;51.960;20.158;2023-04-24T06:36:09;13.60;;;9.20;;
55800;SDS011;41730;51.960;20.158;2023-04-24T06:39:29;14.10;;;9.20;;
55800;SDS011;41730;51.960;20.158;2023-04-24T06:42:23;14.30;;;9.60;;
55800;SDS011;41730;51.960;20.158;2023-04-24T06:44:55;18.10;;;10.20;;
55800;SDS011;41730;51.960;20.158;2023-04-24T06:47:32;18.50;;;10.80;;
55800;SDS011;41730;51.960;20.158;2023-04-24T06:50:14;17.40;;;9.90;;
55800;SDS011;41730;51.960;20.158;2023-04-24T06:52:57;20.60;;;9.90;;
55800;SDS011;41730;51.960;20.158;2023-04-24T06:55:58;19.60;;;9.90;;
55800;SDS011;41730;51.960;20.158;2023-04-24T06:58:30;15.60;;;9.90;;
55800;SDS011;41730;51.960;20.158;2023-04-24T07:01:06;17.80;;;9.20;;
55800;SDS011;41730;51.960;20.158;2023-04-24T07:03:44;46.00;;;16.10;;
55800;SDS011;41730;51.960;20.158;2023-04-24T07:06:19;18.50;;;11.00;;
55800;SDS011;41730;51.960;20.158;2023-04-24T07:08:52;24.10;;;10.90;;
55800;SDS011;41730;51.960;20.158;2023-04-24T07:11:25;18.60;;;9.80;;
55800;SDS011;41730;51.960;20.158;2023-04-24T07:17:13;17.40;;;10.60;;
55800;SDS011;41730;51.960;20.158;2023-04-24T07:19:56;14.60;;;10.30;;
55800;SDS011;41730;51.960;20.158;2023-04-24T07:22:33;14.50;;;10.30;;
55800;SDS011;41730;51.960;20.158;2023-04-24T07:25:10;16.40;;;9.10;;
55800;SDS011;41730;51.960;20.158;2023-04-24T07:28:04;15.30;;;8.50;;
55800;SDS011;41730;51.960;20.158;2023-04-24T07:30:39;13.90;;;8.60;;
55800;SDS011;41730;51.960;20.158;2023-04-24T07:33:11;11.60;;;8.40;;
55800;SDS011;41730;51.960;20.158;2023-04-24T07:35:49;12.20;;;7.80;;
55800;SDS011;41730;51.960;20.158;2023-04-24T07:38:21;11.80;;;8.20;;
55800;SDS011;41730;51.960;20.158;2023-04-24T07:40:56;11.00;;;7.80;;
55800;SDS011;41730;51.960;20.158;2023-04-24T07:43:28;13.70;;;8.10;;
55800;SDS011;41730;51.960;20.158;2023-04-24T07:46:00;12.10;;;8.20;;
55800;SDS011;41730;51.960;20.158;2023-04-24T07:48:40;17.60;;;7.90;;
55800;SDS011;41730;51.960;20.158;2023-04-24T07:51:39;12.60;;;7.30;;
55800;SDS011;41730;51.960;20.158;2023-04-24T07:54:13;14.20;;;9.00;;
55800;SDS011;41730;51.960;20.158;2023-04-24T07:56:53;12.40;;;7.00;;
55800;SDS011;41730;51.960;20.158;2023-04-24T07:59:27;10.50;;;6.70;;
55800;SDS011;41730;51.960;20.158;2023-04-24T08:01:59;10.30;;;7.30;;
55800;SDS011;41730;51.960;20.158;2023-04-24T08:04:32;24.40;;;7.20;;
55800;SDS011;41730;51.960;20.158;2023-04-24T08:07:05;11.70;;;7.40;;
55800;SDS011;41730;51.960;20.158;2023-04-24T08:09:39;10.40;;;7.00;;
55800;SDS011;41730;51.960;20.158;2023-04-24T08:12:12;9.20;;;7.10;;
55800;SDS011;41730;51.960;20.158;2023-04-24T08:14:44;13.50;;;7.30;;
55800;SDS011;41730;51.960;20.158;2023-04-24T08:17:19;11.60;;;7.90;;
55800;SDS011;41730;51.960;20.158;2023-04-24T08:19:52;10.40;;;7.10;;
55800;SDS011;41730;51.960;20.158;2023-04-24T08:22:30;18.10;;;7.40;;
55800;SDS011;41730;51.960;20.158;2023-04-24T08:25:03;9.70;;;6.60;;
55800;SDS011;41730;51.960;20.158;2023-04-24T08:27:37;12.50;;;6.20;;
55800;SDS011;41730;51.960;20.158;2023-04-24T08:30:11;10.20;;;5.40;;
55800;SDS011;41730;51.960;20.158;2023-04-24T08:32:48;8.60;;;5.50;;
55800;SDS011;41730;51.960;20.158;2023-04-24T08:35:23;6.90;;;5.60;;
55800;SDS011;41730;51.960;20.158;2023-04-24T08:37:56;9.80;;;5.40;;
55800;SDS011;41730;51.960;20.158;2023-04-24T08:40:29;10.70;;;6.20;;
55800;SDS011;41730;51.960;20.158;2023-04-24T08:43:09;9.00;;;5.60;;
55800;SDS011;41730;51.960;20.158;2023-04-24T08:45:47;17.70;;;5.80;;
55800;SDS011;41730;51.960;20.158;2023-04-24T08:48:27;8.50;;;5.70;;
55800;SDS011;41730;51.960;20.158;2023-04-24T08:51:16;7.30;;;5.00;;
55800;SDS011;41730;51.960;20.158;2023-04-24T08:54:04;9.40;;;5.20;;
55800;SDS011;41730;51.960;20.158;2023-04-24T08:56:44;18.50;;;6.00;;
55800;SDS011;41730;51.960;20.158;2023-04-24T08:59:48;12.80;;;5.40;;
55800;SDS011;41730;51.960;20.158;2023-04-24T09:02:31;10.20;;;5.50;;
55800;SDS011;41730;51.960;20.158;2023-04-24T09:05:11;8.80;;;5.40;;
55800;SDS011;41730;51.960;20.158;2023-04-24T09:07:56;9.20;;;5.10;;
55800;SDS011;41730;51.960;20.158;2023-04-24T09:10:31;7.00;;;4.80;;
55800;SDS011;41730;51.960;20.158;2023-04-24T09:13:08;5.50;;;4.10;;
55800;SDS011;41730;51.960;20.158;2023-04-24T09:18:26;10.80;;;5.00;;
55800;SDS011;41730;51.960;20.158;2023-04-24T09:20:59;7.60;;;4.80;;
55800;SDS011;41730;51.960;20.158;2023-04-24T09:23:33;7.30;;;4.70;;
55800;SDS011;41730;51.960;20.158;2023-04-24T09:26:07;20.60;;;6.00;;
55800;SDS011;41730;51.960;20.158;2023-04-24T09:28:44;8.40;;;4.20;;
55800;SDS011;41730;51.960;20.158;2023-04-24T09:31:22;6.90;;;4.40;;
55800;SDS011;41730;51.960;20.158;2023-04-24T09:34:02;6.70;;;4.50;;
55800;SDS011;41730;51.960;20.158;2023-04-24T09:36:41;6.50;;;3.90;;
55800;SDS011;41730;51.960;20.158;2023-04-24T09:39:22;9.30;;;4.30;;
55800;SDS011;41730;51.960;20.158;2023-04-24T09:41:55;8.20;;;4.10;;
55800;SDS011;41730;51.960;20.158;2023-04-24T09:44:28;8.20;;;4.80;;
55800;SDS011;41730;51.960;20.158;2023-04-24T09:47:04;15.50;;;6.10;;
55800;SDS011;41730;51.960;20.158;2023-04-24T09:49:40;6.40;;;5.00;;
55800;SDS011;41730;51.960;20.158;2023-04-24T09:52:13;9.10;;;5.30;;
55800;SDS011;41730;51.960;20.158;2023-04-24T09:54:50;17.20;;;5.90;;
55800;SDS011;41730;51.960;20.158;2023-04-24T09:57:25;12.20;;;5.00;;
55800;SDS011;41730;51.960;20.158;2023-04-24T09:59:57;14.30;;;5.70;;
55800;SDS011;41730;51.960;20.158;2023-04-24T10:02:31;8.10;;;4.50;;
55800;SDS011;41730;51.960;20.158;2023-04-24T10:05:04;7.70;;;5.20;;
55800;SDS011;41730;51.960;20.158;2023-04-24T10:07:41;13.50;;;5.50;;
55800;SDS011;41730;51.960;20.158;2023-04-24T10:10:33;8.20;;;4.90;;
55800;SDS011;41730;51.960;20.158;2023-04-24T10:13:21;17.90;;;5.40;;
55800;SDS011;41730;51.960;20.158;2023-04-24T10:16:16;9.30;;;4.80;;
55800;SDS011;41730;51.960;20.158;2023-04-24T10:18:53;10.30;;;5.80;;
55800;SDS011;41730;51.960;20.158;2023-04-24T10:21:45;13.40;;;5.20;;
55800;SDS011;41730;51.960;20.158;2023-04-24T10:24:23;8.70;;;5.20;;
55800;SDS011;41730;51.960;20.158;2023-04-24T10:27:00;14.00;;;5.60;;
55800;SDS011;41730;51.960;20.158;2023-04-24T10:29:42;15.00;;;6.20;;
55800;SDS011;41730;51.960;20.158;2023-04-24T10:32:20;11.20;;;5.50;;
55800;SDS011;41730;51.960;20.158;2023-04-24T10:34:56;6.30;;;4.60;;
55800;SDS011;41730;51.960;20.158;2023-04-24T10:37:36;9.40;;;5.10;;
55800;SDS011;41730;51.960;20.158;2023-04-24T10:40:16;8.40;;;4.80;;
55800;SDS011;41730;51.960;20.158;2023-04-24T10:43:04;11.10;;;5.20;;
55800;SDS011;41730;51.960;20.158;2023-04-24T10:46:02;7.50;;;4.80;;
55800;SDS011;41730;51.960;20.158;2023-04-24T10:48:43;7.90;;;4.80;;
55800;SDS011;41730;51.960;20.158;2023-04-24T10:51:42;8.50;;;4.50;;
55800;SDS011;41730;51.960;20.158;2023-04-24T10:54:26;9.90;;;4.80;;
55800;SDS011;41730;51.960;20.158;2023-04-24T11:04:00;8.40;;;4.10;;
55800;SDS011;41730;51.960;20.158;2023-04-24T11:06:39;7.20;;;4.70;;
55800;SDS011;41730;51.960;20.158;2023-04-24T11:09:12;10.40;;;5.00;;
55800;SDS011;41730;51.960;20.158;2023-04-24T11:11:47;8.00;;;4.80;;
55800;SDS011;41730;51.960;20.158;2023-04-24T11:14:19;9.20;;;4.50;;
55800;SDS011;41730;51.960;20.158;2023-04-24T11:16:53;7.50;;;4.10;;
55800;SDS011;41730;51.960;20.158;2023-04-24T11:19:28;16.70;;;6.20;;
55800;SDS011;41730;51.960;20.158;2023-04-24T11:22:14;10.40;;;4.90;;
55800;SDS011;41730;51.960;20.158;2023-04-24T11:24:58;16.00;;;4.90;;
55800;SDS011;41730;51.960;20.158;2023-04-24T11:27:40;10.40;;;5.10;;
55800;SDS011;41730;51.960;20.158;2023-04-24T11:30:16;10.10;;;5.10;;
55800;SDS011;41730;51.960;20.158;2023-04-24T11:35:40;6.30;;;4.00;;
55800;SDS011;41730;51.960;20.158;2023-04-24T11:38:15;8.00;;;4.50;;
55800;SDS011;41730;51.960;20.158;2023-04-24T11:40:52;7.10;;;5.00;;
55800;SDS011;41730;51.960;20.158;2023-04-24T11:43:25;10.00;;;4.60;;
55800;SDS011;41730;51.960;20.158;2023-04-24T11:46:00;7.10;;;4.40;;
55800;SDS011;41730;51.960;20.158;2023-04-24T11:48:36;5.50;;;4.40;;
55800;SDS011;41730;51.960;20.158;2023-04-24T11:51:22;20.00;;;5.50;;
55800;SDS011;41730;51.960;20.158;2023-04-24T11:54:07;11.90;;;4.60;;
55800;SDS011;41730;51.960;20.158;2023-04-24T11:56:48;6.30;;;4.00;;
55800;SDS011;41730;51.960;20.158;2023-04-24T11:59:28;7.40;;;3.70;;
55800;SDS011;41730;51.960;20.158;2023-04-24T12:02:04;10.50;;;4.40;;
55800;SDS011;41730;51.960;20.158;2023-04-24T12:04:40;15.50;;;4.50;;
55800;SDS011;41730;51.960;20.158;2023-04-24T12:07:14;10.40;;;4.00;;
55800;SDS011;41730;51.960;20.158;2023-04-24T12:09:57;6.90;;;4.00;;
55800;SDS011;41730;51.960;20.158;2023-04-24T12:12:31;5.70;;;3.80;;
55800;SDS011;41730;51.960;20.158;2023-04-24T12:15:06;4.40;;;3.40;;
55800;SDS011;41730;51.960;20.158;2023-04-24T12:17:42;5.70;;;4.00;;
55800;SDS011;41730;51.960;20.158;2023-04-24T12:20:22;7.30;;;3.70;;
55800;SDS011;41730;51.960;20.158;2023-04-24T12:22:57;7.00;;;3.90;;
55800;SDS011;41730;51.960;20.158;2023-04-24T12:28:37;6.20;;;3.60;;
55800;SDS011;41730;51.960;20.158;2023-04-24T12:31:10;7.00;;;3.40;;
55800;SDS011;41730;51.960;20.158;2023-04-24T12:33:43;8.50;;;3.60;;
55800;SDS011;41730;51.960;20.158;2023-04-24T12:36:15;6.40;;;3.50;;
55800;SDS011;41730;51.960;20.158;2023-04-24T12:38:52;5.00;;;3.50;;
55800;SDS011;41730;51.960;20.158;2023-04-24T12:41:30;4.00;;;3.30;;
55800;SDS011;41730;51.960;20.158;2023-04-24T12:44:03;5.00;;;3.20;;
55800;SDS011;41730;51.960;20.158;2023-04-24T12:46:41;6.30;;;3.60;;
55800;SDS011;41730;51.960;20.158;2023-04-24T12:49:13;5.30;;;3.60;;
55800;SDS011;41730;51.960;20.158;2023-04-24T12:51:46;4.50;;;3.60;;
55800;SDS011;41730;51.960;20.158;2023-04-24T12:54:24;8.00;;;4.90;;
55800;SDS011;41730;51.960;20.158;2023-04-24T12:57:02;5.60;;;4.80;;
55800;SDS011;41730;51.960;20.158;2023-04-24T12:59:35;8.50;;;4.80;;
55800;SDS011;41730;51.960;20.158;2023-04-24T13:02:09;6.50;;;5.20;;
55800;SDS011;41730;51.960;20.158;2023-04-24T13:04:46;19.10;;;13.70;;
55800;SDS011;41730;51.960;20.158;2023-04-24T13:07:21;18.80;;;12.10;;
55800;SDS011;41730;51.960;20.158;2023-04-24T13:09:55;9.50;;;7.60;;
55800;SDS011;41730;51.960;20.158;2023-04-24T13:12:34;6.80;;;4.80;;
55800;SDS011;41730;51.960;20.158;2023-04-24T13:15:16;5.80;;;4.80;;
55800;SDS011;41730;51.960;20.158;2023-04-24T13:17:52;7.40;;;5.00;;
55800;SDS011;41730;51.960;20.158;2023-04-24T13:20:25;6.50;;;5.10;;
55800;SDS011;41730;51.960;20.158;2023-04-24T13:22:57;6.30;;;5.30;;
55800;SDS011;41730;51.960;20.158;2023-04-24T13:25:30;8.30;;;5.30;;
55800;SDS011;41730;51.960;20.158;2023-04-24T13:28:07;8.00;;;5.40;;
55800;SDS011;41730;51.960;20.158;2023-04-24T13:30:43;6.90;;;4.80;;
55800;SDS011;41730;51.960;20.158;2023-04-24T13:33:21;6.60;;;4.30;;
55800;SDS011;41730;51.960;20.158;2023-04-24T13:35:54;10.10;;;5.40;;
55800;SDS011;41730;51.960;20.158;2023-04-24T13:38:34;7.70;;;5.00;;
55800;SDS011;41730;51.960;20.158;2023-04-24T13:41:14;8.00;;;4.60;;
55800;SDS011;41730;51.960;20.158;2023-04-24T13:44:06;6.00;;;3.90;;
55800;SDS011;41730;51.960;20.158;2023-04-24T13:46:42;7.40;;;4.10;;
55800;SDS011;41730;51.960;20.158;2023-04-24T13:49:18;7.70;;;3.50;;
55800;SDS011;41730;51.960;20.158;2023-04-24T13:52:07;5.60;;;3.90;;
55800;SDS011;41730;51.960;20.158;2023-04-24T13:54:41;10.10;;;4.20;;
55800;SDS011;41730;51.960;20.158;2023-04-24T13:57:33;4.90;;;3.80;;
55800;SDS011;41730;51.960;20.158;2023-04-24T14:00:08;5.20;;;4.00;;
55800;SDS011;41730;51.960;20.158;2023-04-24T14:02:43;5.90;;;3.70;;
55800;SDS011;41730;51.960;20.158;2023-04-24T14:05:17;4.10;;;3.40;;
55800;SDS011;41730;51.960;20.158;2023-04-24T14:07:50;6.40;;;3.90;;
55800;SDS011;41730;51.960;20.158;2023-04-24T14:10:22;4.40;;;3.40;;
55800;SDS011;41730;51.960;20.158;2023-04-24T14:12:56;7.40;;;4.20;;
55800;SDS011;41730;51.960;20.158;2023-04-24T14:15:30;5.80;;;3.50;;
55800;SDS011;41730;51.960;20.158;2023-04-24T14:18:04;4.20;;;3.50;;
55800;SDS011;41730;51.960;20.158;2023-04-24T14:23:08;4.40;;;3.30;;
55800;SDS011;41730;51.960;20.158;2023-04-24T14:25:41;6.50;;;3.30;;
55800;SDS011;41730;51.960;20.158;2023-04-24T14:28:14;6.20;;;3.40;;
55800;SDS011;41730;51.960;20.158;2023-04-24T14:30:49;4.60;;;3.20;;
55800;SDS011;41730;51.960;20.158;2023-04-24T14:33:33;4.90;;;3.10;;
55800;SDS011;41730;51.960;20.158;2023-04-24T14:36:10;4.90;;;3.60;;
55800;SDS011;41730;51.960;20.158;2023-04-24T14:38:47;6.40;;;3.20;;
55800;SDS011;41730;51.960;20.158;2023-04-24T14:41:20;5.40;;;3.20;;
55800;SDS011;41730;51.960;20.158;2023-04-24T14:43:52;6.90;;;3.40;;
55800;SDS011;41730;51.960;20.158;2023-04-24T14:46:25;5.80;;;3.50;;
55800;SDS011;41730;51.960;20.158;2023-04-24T14:48:58;6.00;;;3.40;;
55800;SDS011;41730;51.960;20.158;2023-04-24T14:51:30;5.90;;;3.00;;
55800;SDS011;41730;51.960;20.158;2023-04-24T14:54:03;6.00;;;3.40;;
55800;SDS011;41730;51.960;20.158;2023-04-24T14:56:36;6.00;;;3.50;;
55800;SDS011;41730;51.960;20.158;2023-04-24T14:59:09;6.80;;;3.50;;
55800;SDS011;41730;51.960;20.158;2023-04-24T15:01:41;6.00;;;3.70;;
55800;SDS011;41730;51.960;20.158;2023-04-24T15:04:13;6.60;;;3.30;;
55800;SDS011;41730;51.960;20.158;2023-04-24T15:06:45;6.40;;;3.20;;
55800;SDS011;41730;51.960;20.158;2023-04-24T15:09:17;5.40;;;3.60;;
55800;SDS011;41730;51.960;20.158;2023-04-24T15:11:50;6.30;;;3.60;;
55800;SDS011;41730;51.960;20.158;2023-04-24T15:14:21;4.50;;;3.40;;
55800;SDS011;41730;51.960;20.158;2023-04-24T15:16:53;6.50;;;3.60;;
55800;SDS011;41730;51.960;20.158;2023-04-24T15:19:26;5.50;;;3.80;;
55800;SDS011;41730;51.960;20.158;2023-04-24T15:21:58;4.70;;;3.60;;
55800;SDS011;41730;51.960;20.158;2023-04-24T15:24:30;11.20;;;3.40;;
55800;SDS011;41730;51.960;20.158;2023-04-24T15:27:02;7.80;;;3.50;;
55800;SDS011;41730;51.960;20.158;2023-04-24T15:29:45;7.10;;;3.40;;
55800;SDS011;41730;51.960;20.158;2023-04-24T15:32:17;6.20;;;3.60;;
55800;SDS011;41730;51.960;20.158;2023-04-24T15:34:49;5.40;;;3.20;;
55800;SDS011;41730;51.960;20.158;2023-04-24T15:37:37;7.10;;;3.90;;
55800;SDS011;41730;51.960;20.158;2023-04-24T15:40:11;6.00;;;3.70;;
55800;SDS011;41730;51.960;20.158;2023-04-24T15:42:45;6.60;;;3.80;;
55800;SDS011;41730;51.960;20.158;2023-04-24T15:45:28;4.90;;;3.30;;